sensor_id;sensor_type;location;lat;lon;timestamp;pressure;altitude;pressure_sealevel;temperature;humidity
6599;BME280;3335;43.198;27.918;2022-10-16T00:01:54;150765.13;;;14.06;100.00
6599;BME280;3335;43.198;27.918;2022-10-16T00:04:21;150758.84;;;14.03;100.00
6599;BME280;3335;43.198;27.918;2022-10-16T00:06:48;150743.81;;;13.97;100.00
6599;BME280;3335;43.198;27.918;2022-10-16T00:09:15;150741.34;;;13.96;100.00
6599;BME280;3335;43.198;27.918;2022-10-16T00:11:42;150728.81;;;13.91;100.00
6599;BME280;3335;43.198;27.918;2022-10-16T00:14:12;150727.56;;;13.91;100.00
6599;BME280;3335;43.198;27.918;2022-10-16T00:16:39;150701.25;;;13.80;100.00
6599;BME280;3335;43.198;27.918;2022-10-16T00:19:09;150691.22;;;13.76;100.00
6599;BME280;3335;43.198;27.918;2022-10-16T00:21:37;150657.44;;;13.63;100.00
6599;BME280;3335;43.198;27.918;2022-10-16T00:24:05;150692.50;;;13.77;100.00
6599;BME280;3335;43.198;27.918;2022-10-16T00:26:35;150683.75;;;13.73;100.00
6599;BME280;3335;43.198;27.918;2022-10-16T00:29:03;150674.94;;;13.70;100.00
6599;BME280;3335;43.198;27.918;2022-10-16T00:31:30;150662.41;;;13.65;100.00
6599;BME280;3335;43.198;27.918;2022-10-16T00:33:57;150647.41;;;13.58;100.00
6599;BME280;3335;43.198;27.918;2022-10-16T00:36:27;150656.19;;;13.62;100.00
6599;BME280;3335;43.198;27.918;2022-10-16T00:38:55;150618.59;;;13.47;100.00
6599;BME280;3335;43.198;27.918;2022-10-16T00:41:25;150643.66;;;13.57;100.00
6599;BME280;3335;43.198;27.918;2022-10-16T00:43:53;150596.09;;;13.38;100.00
6599;BME280;3335;43.198;27.918;2022-10-16T00:46:23;150616.09;;;13.46;100.00
6599;BME280;3335;43.198;27.918;2022-10-16T00:48:53;150608.59;;;13.43;100.00
6599;BME280;3335;43.198;27.918;2022-10-16T00:51:28;150561.03;;;13.24;100.00
6599;BME280;3335;43.198;27.918;2022-10-16T00:53:56;150593.56;;;13.37;100.00
6599;BME280;3335;43.198;27.918;2022-10-16T00:56:24;150556.00;;;13.22;100.00
6599;BME280;3335;43.198;27.918;2022-10-16T00:58:51;150576.06;;;13.30;100.00
6599;BME280;3335;43.198;27.918;2022-10-16T01:01:18;150427.06;;;12.69;100.00
6599;BME280;3335;43.198;27.918;2022-10-16T01:03:45;150559.78;;;13.23;100.00
6599;BME280;3335;43.198;27.918;2022-10-16T01:06:21;150538.50;;;13.14;100.00
6599;BME280;3335;43.198;27.918;2022-10-16T01:09:02;150569.78;;;13.27;100.00
6599;BME280;3335;43.198;27.918;2022-10-16T01:11:35;150537.25;;;13.14;100.00
6599;BME280;3335;43.198;27.918;2022-10-16T01:14:11;150520.91;;;13.07;100.00
6599;BME280;3335;43.198;27.918;2022-10-16T01:16:45;150525.94;;;13.09;100.00
6599;BME280;3335;43.198;27.918;2022-10-16T01:19:20;150518.44;;;13.06;100.00
6599;BME280;3335;43.198;27.918;2022-10-16T01:21:53;150510.91;;;13.03;100.00
6599;BME280;3335;43.198;27.918;2022-10-16T01:24:30;150495.88;;;12.97;100.00
6599;BME280;3335;43.198;27.918;2022-10-16T01:27:10;150487.13;;;12.94;100.00
6599;BME280;3335;43.198;27.918;2022-10-16T01:29:42;150493.41;;;12.96;100.00
6599;BME280;3335;43.198;27.918;2022-10-16T01:32:16;150490.91;;;12.95;100.00
6599;BME280;3335;43.198;27.918;2022-10-16T01:34:49;150453.34;;;12.80;100.00
6599;BME280;3335;43.198;27.918;2022-10-16T01:37:33;150485.88;;;12.93;100.00
6599;BME280;3335;43.198;27.918;2022-10-16T01:40:05;150340.78;;;12.35;100.00
6599;BME280;3335;43.198;27.918;2022-10-16T01:42:38;150482.16;;;12.92;100.00
6599;BME280;3335;43.198;27.918;2022-10-16T01:45:08;150479.63;;;12.91;100.00
6599;BME280;3335;43.198;27.918;2022-10-16T01:47:37;150483.41;;;12.92;100.00
6599;BME280;3335;43.198;27.918;2022-10-16T01:50:08;150485.88;;;12.93;100.00
6599;BME280;3335;43.198;27.918;2022-10-16T01:52:37;150494.66;;;12.97;100.00
6599;BME280;3335;43.198;27.918;2022-10-16T01:55:08;150453.34;;;12.80;100.00
6599;BME280;3335;43.198;27.918;2022-10-16T01:57:41;150477.13;;;12.90;100.00
6599;BME280;3335;43.198;27.918;2022-10-16T02:00:12;150504.66;;;13.01;100.00
6599;BME280;3335;43.198;27.918;2022-10-16T02:02:42;150480.91;;;12.91;100.00
6599;BME280;3335;43.198;27.918;2022-10-16T02:05:16;150498.38;;;12.98;100.00
6599;BME280;3335;43.198;27.918;2022-10-16T02:07:44;150475.88;;;12.89;100.00
6599;BME280;3335;43.198;27.918;2022-10-16T02:10:11;150437.06;;;12.73;100.00
6599;BME280;3335;43.198;27.918;2022-10-16T02:12:43;150455.88;;;12.81;100.00
6599;BME280;3335;43.198;27.918;2022-10-16T02:15:11;150458.38;;;12.82;100.00
6599;BME280;3335;43.198;27.918;2022-10-16T02:17:38;150443.34;;;12.76;100.00
6599;BME280;3335;43.198;27.918;2022-10-16T02:20:05;150445.88;;;12.77;100.00
6599;BME280;3335;43.198;27.918;2022-10-16T02:22:35;150433.34;;;12.72;100.00
6599;BME280;3335;43.198;27.918;2022-10-16T02:25:06;150398.31;;;12.58;100.00
6599;BME280;3335;43.198;27.918;2022-10-16T02:27:38;150404.56;;;12.60;100.00
6599;BME280;3335;43.198;27.918;2022-10-16T02:30:11;150415.81;;;12.65;100.00
6599;BME280;3335;43.198;27.918;2022-10-16T02:32:41;150408.31;;;12.62;100.00
6599;BME280;3335;43.198;27.918;2022-10-16T02:35:10;150408.31;;;12.62;100.00
6599;BME280;3335;43.198;27.918;2022-10-16T02:37:38;150408.31;;;12.62;100.00
6599;BME280;3335;43.198;27.918;2022-10-16T02:40:08;150408.31;;;12.62;100.00
6599;BME280;3335;43.198;27.918;2022-10-16T02:42:36;150407.06;;;12.61;100.00
6599;BME280;3335;43.198;27.918;2022-10-16T02:45:04;150338.25;;;12.34;100.00
6599;BME280;3335;43.198;27.918;2022-10-16T02:47:32;150375.81;;;12.49;100.00
6599;BME280;3335;43.198;27.918;2022-10-16T02:49:59;150378.25;;;12.50;100.00
6599;BME280;3335;43.198;27.918;2022-10-16T02:52:26;150362.03;;;12.43;100.00
6599;BME280;3335;43.198;27.918;2022-10-16T02:54:53;150388.31;;;12.54;100.00
6599;BME280;3335;43.198;27.918;2022-10-16T02:57:20;150398.31;;;12.58;100.00
6599;BME280;3335;43.198;27.918;2022-10-16T02:59:47;150410.84;;;12.63;100.00
6599;BME280;3335;43.198;27.918;2022-10-16T03:02:14;150382.03;;;12.51;100.00
6599;BME280;3335;43.198;27.918;2022-10-16T03:04:42;150408.31;;;12.62;100.00
6599;BME280;3335;43.198;27.918;2022-10-16T03:07:09;150403.28;;;12.60;100.00
6599;BME280;3335;43.198;27.918;2022-10-16T03:09:36;150378.25;;;12.50;100.00
6599;BME280;3335;43.198;27.918;2022-10-16T03:12:03;150374.53;;;12.48;100.00
6599;BME280;3335;43.198;27.918;2022-10-16T03:14:30;150379.53;;;12.50;100.00
6599;BME280;3335;43.198;27.918;2022-10-16T03:16:57;150380.78;;;12.51;100.00
6599;BME280;3335;43.198;27.918;2022-10-16T03:19:24;150380.78;;;12.51;100.00
6599;BME280;3335;43.198;27.918;2022-10-16T03:21:52;150375.81;;;12.49;100.00
6599;BME280;3335;43.198;27.918;2022-10-16T03:24:19;150378.25;;;12.50;100.00
6599;BME280;3335;43.198;27.918;2022-10-16T03:26:46;150387.06;;;12.53;100.00
6599;BME280;3335;43.198;27.918;2022-10-16T03:29:12;150380.78;;;12.51;100.00
6599;BME280;3335;43.198;27.918;2022-10-16T03:31:39;150373.28;;;12.48;100.00
6599;BME280;3335;43.198;27.918;2022-10-16T03:34:06;150010.66;;;11.01;100.00
6599;BME280;3335;43.198;27.918;2022-10-16T03:36:33;150363.28;;;12.44;100.00
6599;BME280;3335;43.198;27.918;2022-10-16T03:39:02;150355.75;;;12.41;100.00
6599;BME280;3335;43.198;27.918;2022-10-16T03:41:29;150370.78;;;12.47;100.00
6599;BME280;3335;43.198;27.918;2022-10-16T03:43:56;150325.75;;;12.28;100.00
6599;BME280;3335;43.198;27.918;2022-10-16T03:46:22;150393.28;;;12.56;100.00
6599;BME280;3335;43.198;27.918;2022-10-16T03:48:49;150398.31;;;12.58;100.00
6599;BME280;3335;43.198;27.918;2022-10-16T03:51:16;150373.28;;;12.48;100.00
6599;BME280;3335;43.198;27.918;2022-10-16T03:53:43;150368.25;;;12.46;100.00
6599;BME280;3335;43.198;27.918;2022-10-16T03:56:11;150354.50;;;12.40;100.00
6599;BME280;3335;43.198;27.918;2022-10-16T03:58:38;150383.28;;;12.52;100.00
6599;BME280;3335;43.198;27.918;2022-10-16T04:01:05;150393.28;;;12.56;100.00
6599;BME280;3335;43.198;27.918;2022-10-16T04:03:32;150403.28;;;12.60;100.00
6599;BME280;3335;43.198;27.918;2022-10-16T04:05:59;150407.06;;;12.61;100.00
6599;BME280;3335;43.198;27.918;2022-10-16T04:08:26;150299.47;;;12.18;100.00
6599;BME280;3335;43.198;27.918;2022-10-16T04:10:53;150393.28;;;12.56;100.00
6599;BME280;3335;43.198;27.918;2022-10-16T04:13:21;150414.56;;;12.64;100.00
6599;BME280;3335;43.198;27.918;2022-10-16T04:15:48;150415.81;;;12.65;100.00
6599;BME280;3335;43.198;27.918;2022-10-16T04:18:15;150429.56;;;12.70;100.00
6599;BME280;3335;43.198;27.918;2022-10-16T04:20:41;150420.81;;;12.67;100.00
6599;BME280;3335;43.198;27.918;2022-10-16T04:23:08;150415.81;;;12.65;100.00
6599;BME280;3335;43.198;27.918;2022-10-16T04:25:35;150423.34;;;12.68;100.00
6599;BME280;3335;43.198;27.918;2022-10-16T04:28:03;150420.81;;;12.67;100.00
6599;BME280;3335;43.198;27.918;2022-10-16T04:30:31;150388.31;;;12.54;100.00
6599;BME280;3335;43.198;27.918;2022-10-16T04:32:58;150415.81;;;12.65;100.00
6599;BME280;3335;43.198;27.918;2022-10-16T04:35:25;150435.84;;;12.73;100.00
6599;BME280;3335;43.198;27.918;2022-10-16T04:37:52;150424.59;;;12.68;100.00
6599;BME280;3335;43.198;27.918;2022-10-16T04:40:19;150408.31;;;12.62;100.00
6599;BME280;3335;43.198;27.918;2022-10-16T04:42:46;150403.28;;;12.60;100.00
6599;BME280;3335;43.198;27.918;2022-10-16T04:45:13;150412.09;;;12.63;100.00
6599;BME280;3335;43.198;27.918;2022-10-16T04:47:41;150407.06;;;12.61;100.00
6599;BME280;3335;43.198;27.918;2022-10-16T04:50:08;150444.59;;;12.77;100.00
6599;BME280;3335;43.198;27.918;2022-10-16T04:52:36;150435.84;;;12.73;100.00
6599;BME280;3335;43.198;27.918;2022-10-16T04:55:03;150453.34;;;12.80;100.00
6599;BME280;3335;43.198;27.918;2022-10-16T04:57:30;150453.34;;;12.80;100.00
6599;BME280;3335;43.198;27.918;2022-10-16T04:59:58;150453.34;;;12.80;100.00
6599;BME280;3335;43.198;27.918;2022-10-16T05:02:25;150447.13;;;12.78;100.00
6599;BME280;3335;43.198;27.918;2022-10-16T05:04:53;150464.59;;;12.85;100.00
6599;BME280;3335;43.198;27.918;2022-10-16T05:07:20;150464.59;;;12.85;100.00
6599;BME280;3335;43.198;27.918;2022-10-16T05:09:47;150455.88;;;12.81;100.00
6599;BME280;3335;43.198;27.918;2022-10-16T05:12:14;150450.84;;;12.79;100.00
6599;BME280;3335;43.198;27.918;2022-10-16T05:14:41;150473.34;;;12.88;100.00
6599;BME280;3335;43.198;27.918;2022-10-16T05:17:08;150470.91;;;12.87;100.00
6599;BME280;3335;43.198;27.918;2022-10-16T05:19:35;150485.88;;;12.93;100.00
6599;BME280;3335;43.198;27.918;2022-10-16T05:22:03;150485.88;;;12.93;100.00
6599;BME280;3335;43.198;27.918;2022-10-16T05:24:30;150480.91;;;12.91;100.00
6599;BME280;3335;43.198;27.918;2022-10-16T05:26:56;150488.38;;;12.94;100.00
6599;BME280;3335;43.198;27.918;2022-10-16T05:29:24;150488.38;;;12.94;100.00
6599;BME280;3335;43.198;27.918;2022-10-16T05:31:51;150494.66;;;12.97;100.00
6599;BME280;3335;43.198;27.918;2022-10-16T05:34:18;150494.66;;;12.97;100.00
6599;BME280;3335;43.198;27.918;2022-10-16T05:36:46;150498.38;;;12.98;100.00
6599;BME280;3335;43.198;27.918;2022-10-16T05:39:16;150503.41;;;13.00;100.00
6599;BME280;3335;43.198;27.918;2022-10-16T05:41:43;150500.91;;;12.99;100.00
6599;BME280;3335;43.198;27.918;2022-10-16T05:44:10;150428.31;;;12.70;100.00
6599;BME280;3335;43.198;27.918;2022-10-16T05:46:37;150513.41;;;13.04;100.00
6599;BME280;3335;43.198;27.918;2022-10-16T05:49:04;150503.41;;;13.00;100.00
6599;BME280;3335;43.198;27.918;2022-10-16T05:51:30;150505.94;;;13.01;100.00
6599;BME280;3335;43.198;27.918;2022-10-16T05:53:57;150508.41;;;13.02;100.00
6599;BME280;3335;43.198;27.918;2022-10-16T05:56:26;150498.38;;;12.98;100.00
6599;BME280;3335;43.198;27.918;2022-10-16T05:58:52;150513.41;;;13.04;100.00
6599;BME280;3335;43.198;27.918;2022-10-16T06:01:20;150518.44;;;13.06;100.00
6599;BME280;3335;43.198;27.918;2022-10-16T06:03:49;150500.91;;;12.99;100.00
6599;BME280;3335;43.198;27.918;2022-10-16T06:06:17;150523.44;;;13.08;100.00
6599;BME280;3335;43.198;27.918;2022-10-16T06:08:45;150543.50;;;13.17;100.00
6599;BME280;3335;43.198;27.918;2022-10-16T06:11:14;150556.00;;;13.22;100.00
6599;BME280;3335;43.198;27.918;2022-10-16T06:13:43;150553.53;;;13.21;100.00
6599;BME280;3335;43.198;27.918;2022-10-16T06:16:12;150558.50;;;13.23;100.00
6599;BME280;3335;43.198;27.918;2022-10-16T06:18:39;150576.06;;;13.30;100.00
6599;BME280;3335;43.198;27.918;2022-10-16T06:21:10;150592.31;;;13.36;100.00
6599;BME280;3335;43.198;27.918;2022-10-16T06:23:37;150603.56;;;13.41;100.00
6599;BME280;3335;43.198;27.918;2022-10-16T06:26:06;150566.06;;;13.26;100.00
6599;BME280;3335;43.198;27.918;2022-10-16T06:28:33;150618.59;;;13.47;100.00
6599;BME280;3335;43.198;27.918;2022-10-16T06:31:03;150593.56;;;13.37;100.00
6599;BME280;3335;43.198;27.918;2022-10-16T06:33:30;150651.16;;;13.60;100.00
6599;BME280;3335;43.198;27.918;2022-10-16T06:36:00;150641.13;;;13.56;100.00
6599;BME280;3335;43.198;27.918;2022-10-16T06:38:27;150649.88;;;13.59;100.00
6599;BME280;3335;43.198;27.918;2022-10-16T06:40:54;150658.69;;;13.63;100.00
6599;BME280;3335;43.198;27.918;2022-10-16T06:43:21;150632.38;;;13.52;100.00
6599;BME280;3335;43.198;27.918;2022-10-16T06:45:51;150707.47;;;13.83;100.00
6599;BME280;3335;43.198;27.918;2022-10-16T06:48:19;150723.78;;;13.89;100.00
6599;BME280;3335;43.198;27.918;2022-10-16T06:50:55;150751.34;;;14.00;100.00
6599;BME280;3335;43.198;27.918;2022-10-16T06:53:22;150763.88;;;14.06;100.00
6599;BME280;3335;43.198;27.918;2022-10-16T06:55:49;150793.91;;;14.18;100.00
6599;BME280;3335;43.198;27.918;2022-10-16T06:58:16;150811.47;;;14.25;100.00
6599;BME280;3335;43.198;27.918;2022-10-16T07:00:43;150824.00;;;14.30;100.00
6599;BME280;3335;43.198;27.918;2022-10-16T07:03:10;150839.03;;;14.36;100.00
6599;BME280;3335;43.198;27.918;2022-10-16T07:05:39;150865.34;;;14.47;100.00
6599;BME280;3335;43.198;27.918;2022-10-16T07:08:06;150881.66;;;14.53;100.00
6599;BME280;3335;43.198;27.918;2022-10-16T07:10:34;150904.22;;;14.62;100.00
6599;BME280;3335;43.198;27.918;2022-10-16T07:13:01;150933.00;;;14.74;100.00
6599;BME280;3335;43.198;27.918;2022-10-16T07:15:28;150921.72;;;14.69;100.00
6599;BME280;3335;43.198;27.918;2022-10-16T07:17:55;150969.34;;;14.88;100.00
6599;BME280;3335;43.198;27.918;2022-10-16T07:20:22;150991.91;;;14.98;100.00
6599;BME280;3335;43.198;27.918;2022-10-16T07:22:50;151006.94;;;15.04;100.00
6599;BME280;3335;43.198;27.918;2022-10-16T07:25:17;151011.97;;;15.06;100.00
6599;BME280;3335;43.198;27.918;2022-10-16T07:27:44;151034.53;;;15.15;100.00
6599;BME280;3335;43.198;27.918;2022-10-16T07:30:11;151054.59;;;15.23;100.00
6599;BME280;3335;43.198;27.918;2022-10-16T07:32:38;151092.19;;;15.38;100.00
6599;BME280;3335;43.198;27.918;2022-10-16T07:35:05;151117.28;;;15.48;100.00
6599;BME280;3335;43.198;27.918;2022-10-16T07:37:33;151144.88;;;15.59;100.00
6599;BME280;3335;43.198;27.918;2022-10-16T07:40:01;151159.94;;;15.65;100.00
6599;BME280;3335;43.198;27.918;2022-10-16T07:42:28;151153.69;;;15.63;100.00
6599;BME280;3335;43.198;27.918;2022-10-16T07:44:55;151191.25;;;15.78;100.00
6599;BME280;3335;43.198;27.918;2022-10-16T07:47:22;151212.63;;;15.87;100.00
6599;BME280;3335;43.198;27.918;2022-10-16T07:49:49;151205.06;;;15.84;100.00
6599;BME280;3335;43.198;27.918;2022-10-16T07:52:16;151235.19;;;15.96;100.00
6599;BME280;3335;43.198;27.918;2022-10-16T07:54:43;151240.16;;;15.98;100.00
6599;BME280;3335;43.198;27.918;2022-10-16T07:57:11;151262.75;;;16.07;100.00
6599;BME280;3335;43.198;27.918;2022-10-16T07:59:44;151262.75;;;16.07;100.00
6599;BME280;3335;43.198;27.918;2022-10-16T08:02:11;151287.84;;;16.17;100.00
6599;BME280;3335;43.198;27.918;2022-10-16T08:04:37;151312.94;;;16.27;100.00
6599;BME280;3335;43.198;27.918;2022-10-16T08:07:06;151338.03;;;16.37;100.00
6599;BME280;3335;43.198;27.918;2022-10-16T08:09:33;151365.63;;;16.48;100.00
6599;BME280;3335;43.198;27.918;2022-10-16T08:12:00;151388.22;;;16.57;100.00
6599;BME280;3335;43.198;27.918;2022-10-16T08:14:29;151410.84;;;16.67;100.00
6599;BME280;3335;43.198;27.918;2022-10-16T08:16:55;151408.31;;;16.66;100.00
6599;BME280;3335;43.198;27.918;2022-10-16T08:19:22;151438.41;;;16.78;100.00
6599;BME280;3335;43.198;27.918;2022-10-16T08:21:49;151407.06;;;16.65;100.00
6599;BME280;3335;43.198;27.918;2022-10-16T08:24:18;151432.16;;;16.75;100.00
6599;BME280;3335;43.198;27.918;2022-10-16T08:26:46;151443.47;;;16.80;100.00
6599;BME280;3335;43.198;27.918;2022-10-16T08:29:13;151459.78;;;16.86;100.00
6599;BME280;3335;43.198;27.918;2022-10-16T08:31:42;151486.09;;;16.97;100.00
6599;BME280;3335;43.198;27.918;2022-10-16T08:34:08;151498.66;;;17.02;100.00
6599;BME280;3335;43.198;27.918;2022-10-16T08:36:35;151503.69;;;17.04;100.00
6599;BME280;3335;43.198;27.918;2022-10-16T08:39:03;151511.22;;;17.07;100.00
6599;BME280;3335;43.198;27.918;2022-10-16T08:45:00;151525.03;;;17.13;100.00
6599;BME280;3335;43.198;27.918;2022-10-16T08:47:39;151543.84;;;17.20;100.00
6599;BME280;3335;43.198;27.918;2022-10-16T08:50:13;151561.44;;;17.27;100.00
6599;BME280;3335;43.198;27.918;2022-10-16T08:52:42;151561.44;;;17.27;100.00
6599;BME280;3335;43.198;27.918;2022-10-16T08:55:18;151566.47;;;17.29;100.00
6599;BME280;3335;43.198;27.918;2022-10-16T08:57:47;151563.94;;;17.28;100.00
6599;BME280;3335;43.198;27.918;2022-10-16T09:00:15;151578.97;;;17.34;100.00
6599;BME280;3335;43.198;27.918;2022-10-16T09:02:50;151589.06;;;17.38;100.00
6599;BME280;3335;43.198;27.918;2022-10-16T09:08:30;151615.38;;;17.49;100.00
6599;BME280;3335;43.198;27.918;2022-10-16T09:11:07;151637.97;;;17.58;100.00
6599;BME280;3335;43.198;27.918;2022-10-16T09:13:43;151643.06;;;17.60;100.00
6599;BME280;3335;43.198;27.918;2022-10-16T09:16:16;151438.41;;;16.78;100.00
6599;BME280;3335;43.198;27.918;2022-10-16T09:18:54;151644.31;;;17.61;100.00
6599;BME280;3335;43.198;27.918;2022-10-16T09:21:25;151671.97;;;17.72;100.00
6599;BME280;3335;43.198;27.918;2022-10-16T09:23:56;151692.03;;;17.80;100.00
6599;BME280;3335;43.198;27.918;2022-10-16T09:26:24;151699.56;;;17.83;100.00
6599;BME280;3335;43.198;27.918;2022-10-16T09:28:52;151738.50;;;17.99;100.00
6599;BME280;3335;43.198;27.918;2022-10-16T09:31:20;151749.81;;;18.03;100.00
6599;BME280;3335;43.198;27.918;2022-10-16T09:33:53;151747.28;;;18.02;100.00
6599;BME280;3335;43.198;27.918;2022-10-16T09:36:23;151801.31;;;18.24;100.00
6599;BME280;3335;43.198;27.918;2022-10-16T09:39:03;151845.25;;;18.42;99.94
6599;BME280;3335;43.198;27.918;2022-10-16T09:41:30;151821.41;;;18.32;98.24
6599;BME280;3335;43.198;27.918;2022-10-16T09:44:01;151830.19;;;18.35;94.20
6599;BME280;3335;43.198;27.918;2022-10-16T09:46:32;151850.31;;;18.44;92.83
6599;BME280;3335;43.198;27.918;2022-10-16T09:49:03;151844.00;;;18.41;95.23
6599;BME280;3335;43.198;27.918;2022-10-16T09:51:33;151857.84;;;18.47;93.18
6599;BME280;3335;43.198;27.918;2022-10-16T09:54:02;151866.63;;;18.50;90.37
6599;BME280;3335;43.198;27.918;2022-10-16T09:56:30;151893.06;;;18.61;93.27
6599;BME280;3335;43.198;27.918;2022-10-16T09:58:59;151910.63;;;18.68;90.65
6599;BME280;3335;43.198;27.918;2022-10-16T10:01:32;151948.31;;;18.83;91.58
6599;BME280;3335;43.198;27.918;2022-10-16T10:04:05;151954.63;;;18.86;90.58
6599;BME280;3335;43.198;27.918;2022-10-16T10:06:34;151943.31;;;18.81;91.57
6599;BME280;3335;43.198;27.918;2022-10-16T10:09:13;151973.47;;;18.93;94.12
6599;BME280;3335;43.198;27.918;2022-10-16T10:11:45;151973.47;;;18.93;90.65
6599;BME280;3335;43.198;27.918;2022-10-16T10:14:25;151980.97;;;18.96;87.02
6599;BME280;3335;43.198;27.918;2022-10-16T10:17:12;151998.59;;;19.03;84.65
6599;BME280;3335;43.198;27.918;2022-10-16T10:19:44;152003.66;;;19.05;82.91
6599;BME280;3335;43.198;27.918;2022-10-16T10:22:27;151983.50;;;18.97;86.72
6599;BME280;3335;43.198;27.918;2022-10-16T10:24:57;151988.56;;;18.99;84.69
6599;BME280;3335;43.198;27.918;2022-10-16T10:27:32;151980.97;;;18.96;86.83
6599;BME280;3335;43.198;27.918;2022-10-16T10:30:07;152006.13;;;19.06;86.57
6599;BME280;3335;43.198;27.918;2022-10-16T10:32:46;152023.75;;;19.13;85.68
6599;BME280;3335;43.198;27.918;2022-10-16T10:35:22;152033.78;;;19.17;85.54
6599;BME280;3335;43.198;27.918;2022-10-16T10:38:07;152061.47;;;19.29;84.90
6599;BME280;3335;43.198;27.918;2022-10-16T10:40:47;152105.47;;;19.46;87.49
6599;BME280;3335;43.198;27.918;2022-10-16T10:43:29;152145.69;;;19.62;93.63
6599;BME280;3335;43.198;27.918;2022-10-16T10:46:03;152155.78;;;19.67;95.14
6599;BME280;3335;43.198;27.918;2022-10-16T10:48:54;152224.94;;;19.94;93.82
6599;BME280;3335;43.198;27.918;2022-10-16T10:51:34;152197.25;;;19.83;93.55
6599;BME280;3335;43.198;27.918;2022-10-16T10:54:14;152214.88;;;19.90;83.72
6599;BME280;3335;43.198;27.918;2022-10-16T10:56:50;152257.63;;;20.07;92.40
6599;BME280;3335;43.198;27.918;2022-10-16T10:59:34;152224.94;;;19.94;94.62
6599;BME280;3335;43.198;27.918;2022-10-16T11:02:13;152179.66;;;19.76;97.84
6599;BME280;3335;43.198;27.918;2022-10-16T11:05:06;152046.34;;;19.22;91.22
6599;BME280;3335;43.198;27.918;2022-10-16T11:07:43;152245.03;;;20.02;91.63
6599;BME280;3335;43.198;27.918;2022-10-16T11:10:14;152302.88;;;20.26;91.63
6599;BME280;3335;43.198;27.918;2022-10-16T11:12:46;152352.00;;;20.45;85.81
6599;BME280;3335;43.198;27.918;2022-10-16T11:15:16;152355.78;;;20.47;90.04
6599;BME280;3335;43.198;27.918;2022-10-16T11:17:50;152315.50;;;20.31;90.16
6599;BME280;3335;43.198;27.918;2022-10-16T11:20:21;152358.31;;;20.48;84.62
6599;BME280;3335;43.198;27.918;2022-10-16T11:22:54;152418.66;;;20.72;83.98
6599;BME280;3335;43.198;27.918;2022-10-16T11:25:25;152411.13;;;20.69;90.83
6599;BME280;3335;43.198;27.918;2022-10-16T11:27:56;152423.69;;;20.74;84.57
6599;BME280;3335;43.198;27.918;2022-10-16T11:30:28;152438.81;;;20.80;87.60
6599;BME280;3335;43.198;27.918;2022-10-16T11:35:50;152471.50;;;20.93;78.49
6599;BME280;3335;43.198;27.918;2022-10-16T11:38:26;152453.88;;;20.86;72.24
6599;BME280;3335;43.198;27.918;2022-10-16T11:40:58;152496.69;;;21.04;74.20
6599;BME280;3335;43.198;27.918;2022-10-16T11:43:32;152481.56;;;20.98;83.23
6599;BME280;3335;43.198;27.918;2022-10-16T11:46:05;152496.69;;;21.04;84.05
6599;BME280;3335;43.198;27.918;2022-10-16T11:48:39;152491.63;;;21.02;85.71
6599;BME280;3335;43.198;27.918;2022-10-16T11:51:14;152521.91;;;21.14;87.29
6599;BME280;3335;43.198;27.918;2022-10-16T11:53:46;152549.56;;;21.25;84.57
6599;BME280;3335;43.198;27.918;2022-10-16T11:56:19;152476.50;;;20.95;88.02
6599;BME280;3335;43.198;27.918;2022-10-16T11:58:53;152524.38;;;21.15;76.42
6599;BME280;3335;43.198;27.918;2022-10-16T12:01:28;152384.69;;;20.59;80.52
6599;BME280;3335;43.198;27.918;2022-10-16T12:04:04;152484.09;;;20.99;83.31
6599;BME280;3335;43.198;27.918;2022-10-16T12:06:36;152511.81;;;21.10;82.78
6599;BME280;3335;43.198;27.918;2022-10-16T12:09:15;152491.63;;;21.02;83.01
6599;BME280;3335;43.198;27.918;2022-10-16T12:11:44;152443.81;;;20.82;84.05
6599;BME280;3335;43.198;27.918;2022-10-16T12:14:20;152460.19;;;20.89;88.32
6599;BME280;3335;43.198;27.918;2022-10-16T12:16:53;152486.63;;;21.00;86.03
6599;BME280;3335;43.198;27.918;2022-10-16T12:19:21;152477.78;;;20.96;85.21
6599;BME280;3335;43.198;27.918;2022-10-16T12:21:49;152511.81;;;21.10;81.26
6599;BME280;3335;43.198;27.918;2022-10-16T12:24:30;152491.63;;;21.02;85.36
6599;BME280;3335;43.198;27.918;2022-10-16T12:26:58;152423.69;;;20.74;89.39
6599;BME280;3335;43.198;27.918;2022-10-16T12:29:32;152524.38;;;21.15;84.71
6599;BME280;3335;43.198;27.918;2022-10-16T12:32:02;152577.28;;;21.36;87.83
6599;BME280;3335;43.198;27.918;2022-10-16T12:34:37;152567.22;;;21.32;85.22
6599;BME280;3335;43.198;27.918;2022-10-16T12:37:11;152499.22;;;21.05;87.91
6599;BME280;3335;43.198;27.918;2022-10-16T12:39:41;152476.50;;;20.95;84.03
6599;BME280;3335;43.198;27.918;2022-10-16T12:42:21;152475.31;;;20.95;81.57
6599;BME280;3335;43.198;27.918;2022-10-16T12:44:49;152481.56;;;20.98;81.48
6599;BME280;3335;43.198;27.918;2022-10-16T12:47:21;152246.28;;;20.03;81.94
6599;BME280;3335;43.198;27.918;2022-10-16T12:49:50;152484.09;;;20.99;78.23
6599;BME280;3335;43.198;27.918;2022-10-16T12:52:25;152393.53;;;20.62;80.18
6599;BME280;3335;43.198;27.918;2022-10-16T12:54:56;152460.19;;;20.89;84.64
6599;BME280;3335;43.198;27.918;2022-10-16T12:57:38;152463.97;;;20.90;82.09
6599;BME280;3335;43.198;27.918;2022-10-16T13:00:17;152485.38;;;20.99;80.57
6599;BME280;3335;43.198;27.918;2022-10-16T13:06:04;152510.53;;;21.09;77.69
6599;BME280;3335;43.198;27.918;2022-10-16T13:08:42;152547.09;;;21.24;78.49
6599;BME280;3335;43.198;27.918;2022-10-16T13:11:22;152567.22;;;21.32;74.14
6599;BME280;3335;43.198;27.918;2022-10-16T13:14:11;152539.50;;;21.21;73.08
6599;BME280;3335;43.198;27.918;2022-10-16T13:16:51;152516.81;;;21.12;76.72
6599;BME280;3335;43.198;27.918;2022-10-16T13:19:26;152484.09;;;20.99;75.96
6599;BME280;3335;43.198;27.918;2022-10-16T13:22:03;152463.97;;;20.90;80.55